Time;durP1;ratioP1;P1;durP2;ratioP2;P2;SDS_P1;SDS_P2;PMS_P1;PMS_P2;Temp;Humidity;BMP_temperature;BMP_pressure;BME280_temperature;BME280_humidity;BME280_pressure;Samples;Min_cycle;Max_cycle;Signal;HPM_P1;HPM_P2
2022/07/25 00:01:45;;;;;;;5.30;4.80;;;25.00;99.90;;;;;;5078643;28;20411;-66
2022/07/25 00:04:11;;;;;;;6.30;4.70;;;25.10;99.90;;;;;;5078003;28;20065;-65
2022/07/25 00:06:40;;;;;;;7.13;4.68;;;25.00;99.90;;;;;;5077355;28;20032;-66
2022/07/25 00:09:07;;;;;;;6.43;4.60;;;24.90;99.90;;;;;;5077830;28;20306;-66
2022/07/25 00:11:32;;;;;;;4.85;4.30;;;24.90;99.90;;;;;;5077063;28;20029;-65
2022/07/25 00:13:58;;;;;;;5.47;4.03;;;24.90;99.90;;;;;;5076955;28;20036;-66
2022/07/25 00:16:24;;;;;;;4.88;4.38;;;24.90;99.90;;;;;;5077684;28;20039;-66
2022/07/25 00:18:50;;;;;;;5.82;4.72;;;25.00;99.90;;;;;;5076925;28;20115;-65
2022/07/25 00:21:15;;;;;;;5.75;4.40;;;24.90;99.90;;;;;;5077477;28;20024;-64
2022/07/25 00:23:41;;;;;;;4.53;4.13;;;24.80;99.90;;;;;;5077058;28;20047;-65
2022/07/25 00:26:07;;;;;;;5.55;4.43;;;24.80;99.90;;;;;;5078098;28;20055;-66
2022/07/25 00:28:33;;;;;;;6.22;4.57;;;24.80;99.90;;;;;;5077470;28;20028;-65
2022/07/25 00:30:59;;;;;;;4.90;4.22;;;24.70;99.90;;;;;;5077377;28;20033;-65
2022/07/25 00:33:24;;;;;;;4.72;4.10;;;24.80;99.90;;;;;;5077256;28;20408;-66
2022/07/25 00:35:50;;;;;;;6.00;4.30;;;24.80;99.90;;;;;;5076485;28;20044;-66
2022/07/25 00:38:16;;;;;;;4.78;4.35;;;24.80;99.90;;;;;;5076523;28;20059;-66
2022/07/25 00:40:43;;;;;;;6.18;4.60;;;24.60;99.90;;;;;;5077260;28;20033;-66
2022/07/25 00:43:09;;;;;;;6.00;4.55;;;24.60;99.90;;;;;;5077199;28;20037;-66
2022/07/25 00:45:34;;;;;;;5.47;3.88;;;24.60;99.90;;;;;;5077067;28;20123;-64
2022/07/25 00:48:00;;;;;;;6.55;4.85;;;24.60;99.90;;;;;;5077111;28;20308;-66
2022/07/25 00:50:26;;;;;;;6.80;4.78;;;24.60;99.90;;;;;;5077712;28;20120;-66
2022/07/25 00:52:52;;;;;;;4.80;4.40;;;24.50;99.90;;;;;;5077203;28;20033;-65
2022/07/25 00:55:18;;;;;;;7.50;4.28;;;24.50;99.90;;;;;;5077613;28;20035;-65
2022/07/25 00:57:44;;;;;;;5.13;4.63;;;24.40;99.90;;;;;;5076110;28;20087;-65
2022/07/25 01:00:12;;;;;;;6.57;4.60;;;24.30;99.90;;;;;;5076307;28;20125;-65
2022/07/25 01:02:39;;;;;;;5.13;4.63;;;24.30;99.90;;;;;;5059426;28;20307;-65
2022/07/25 01:05:05;;;;;;;6.80;4.72;;;24.30;99.90;;;;;;5076158;28;20404;-65
2022/07/25 01:07:31;;;;;;;5.78;4.45;;;24.20;99.90;;;;;;5077147;28;20181;-66
2022/07/25 01:09:58;;;;;;;5.90;4.20;;;24.20;99.90;;;;;;5076150;28;20025;-65
2022/07/25 01:12:24;;;;;;;6.30;5.00;;;24.20;99.90;;;;;;5075994;28;20412;-65
2022/07/25 01:14:50;;;;;;;5.53;4.68;;;24.00;99.90;;;;;;5076261;28;20292;-64
2022/07/25 01:17:16;;;;;;;6.78;4.70;;;24.10;99.90;;;;;;5076115;28;20175;-65
2022/07/25 01:19:42;;;;;;;6.57;4.50;;;24.10;99.90;;;;;;5076782;28;20281;-65
2022/07/25 01:22:08;;;;;;;5.03;4.50;;;24.00;99.90;;;;;;5076786;28;20064;-65
2022/07/25 01:24:34;;;;;;;5.72;4.45;;;23.90;99.90;;;;;;5075975;28;20396;-66
2022/07/25 01:27:01;;;;;;;5.00;4.50;;;23.80;99.90;;;;;;5076103;28;20134;-65
2022/07/25 01:29:27;;;;;;;6.57;4.78;;;23.90;99.90;;;;;;5076727;28;20086;-66
2022/07/25 01:31:53;;;;;;;5.57;4.80;;;23.90;99.90;;;;;;5076004;28;20060;-65
2022/07/25 01:34:19;;;;;;;5.32;4.65;;;23.90;99.90;;;;;;5076030;28;20060;-64
2022/07/25 01:36:45;;;;;;;6.88;4.32;;;23.80;99.90;;;;;;5059278;28;20048;-66
2022/07/25 01:39:10;;;;;;;4.90;4.47;;;23.70;99.90;;;;;;5075946;28;20033;-65
2022/07/25 01:41:36;;;;;;;8.27;4.82;;;23.70;99.90;;;;;;5077148;28;20107;-66
2022/07/25 01:44:02;;;;;;;5.55;4.90;;;23.70;99.90;;;;;;5075836;28;20036;-65
2022/07/25 01:46:28;;;;;;;6.93;4.70;;;23.60;99.90;;;;;;5076663;28;20025;-65
2022/07/25 01:48:54;;;;;;;6.53;4.60;;;23.50;99.90;;;;;;5076578;28;20052;-66
2022/07/25 01:51:20;;;;;;;7.63;4.88;;;23.50;99.90;;;;;;5076630;28;20121;-66
2022/07/25 01:53:46;;;;;;;10.32;4.60;;;23.50;99.90;;;;;;5076397;28;20044;-65
2022/07/25 01:56:11;;;;;;;5.18;4.65;;;23.50;99.90;;;;;;5076372;28;20396;-66
2022/07/25 01:58:37;;;;;;;5.30;4.80;;;23.50;99.90;;;;;;5075813;28;20112;-66
2022/07/25 02:01:03;;;;;;;6.30;5.13;;;23.50;99.90;;;;;;5076475;28;20021;-65
2022/07/25 02:03:29;;;;;;;6.75;4.80;;;23.40;99.90;;;;;;5075755;28;20044;-66
2022/07/25 02:05:56;;;;;;;5.00;4.60;;;23.50;99.90;;;;;;5075627;28;20047;-66
2022/07/25 02:08:22;;;;;;;8.07;4.88;;;23.50;99.90;;;;;;5076425;28;20024;-64
2022/07/25 02:10:48;;;;;;;6.97;4.90;;;23.40;99.90;;;;;;5076321;28;20400;-66
2022/07/25 02:13:14;;;;;;;6.30;5.35;;;23.40;99.90;;;;;;5042259;28;20037;-66
2022/07/25 02:15:40;;;;;;;6.15;4.65;;;23.30;99.90;;;;;;5075697;28;20029;-65
2022/07/25 02:18:05;;;;;;;5.55;4.88;;;23.30;99.90;;;;;;5076491;28;20308;-65
2022/07/25 02:20:31;;;;;;;5.25;4.80;;;23.20;99.90;;;;;;5076687;28;20021;-65
2022/07/25 02:22:57;;;;;;;4.95;4.55;;;23.20;99.90;;;;;;5076224;28;20048;-64
2022/07/25 02:25:22;;;;;;;7.03;5.15;;;23.20;99.90;;;;;;5075998;28;20036;-66
2022/07/25 02:27:48;;;;;;;5.28;4.75;;;23.20;99.90;;;;;;5079828;28;20337;-65
2022/07/25 02:30:14;;;;;;;8.35;4.78;;;23.20;99.90;;;;;;5079122;28;20032;-65
2022/07/25 02:32:40;;;;;;;5.35;4.60;;;23.30;99.90;;;;;;5079649;28;20041;-65
2022/07/25 02:35:06;;;;;;;5.25;4.63;;;23.30;99.90;;;;;;5078994;28;20037;-65
2022/07/25 02:37:32;;;;;;;5.32;4.82;;;23.40;99.90;;;;;;5079034;28;20420;-65
2022/07/25 02:39:58;;;;;;;6.28;5.00;;;23.40;99.90;;;;;;5078968;28;20051;-65
2022/07/25 02:42:24;;;;;;;5.28;4.70;;;23.40;99.90;;;;;;5078708;28;20120;-65
2022/07/25 02:44:50;;;;;;;5.03;4.53;;;23.40;99.90;;;;;;5079573;28;20029;-65
2022/07/25 02:47:16;;;;;;;6.30;5.25;;;23.30;99.90;;;;;;5079466;28;20033;-65
2022/07/25 02:49:42;;;;;;;5.72;5.07;;;23.40;99.90;;;;;;5078651;28;20040;-65
2022/07/25 02:52:08;;;;;;;6.28;4.80;;;23.40;99.90;;;;;;5079313;28;20107;-65
2022/07/25 02:54:33;;;;;;;6.43;5.10;;;23.30;99.90;;;;;;5061873;28;20039;-65
2022/07/25 02:56:59;;;;;;;6.13;4.90;;;23.30;99.90;;;;;;5079128;28;20114;-66
2022/07/25 02:59:25;;;;;;;9.55;4.72;;;23.30;99.90;;;;;;5079421;28;20029;-65
2022/07/25 03:01:51;;;;;;;5.60;4.88;;;23.40;99.90;;;;;;5079355;28;20032;-65
2022/07/25 03:04:16;;;;;;;5.68;5.13;;;23.40;99.90;;;;;;5078447;28;20063;-66
2022/07/25 03:06:42;;;;;;;5.28;4.78;;;23.40;99.90;;;;;;5078413;28;20371;-65
2022/07/25 03:09:08;;;;;;;5.47;4.93;;;23.40;99.90;;;;;;5061801;28;20040;-65
2022/07/25 03:11:34;;;;;;;5.57;5.07;;;23.30;99.90;;;;;;5079734;28;20398;-66
2022/07/25 03:13:59;;;;;;;5.13;4.57;;;23.20;99.90;;;;;;5078931;28;20036;-65
2022/07/25 03:16:25;;;;;;;5.75;4.95;;;23.20;99.90;;;;;;5079543;28;20182;-65
2022/07/25 03:18:51;;;;;;;5.93;5.00;;;23.30;99.90;;;;;;5078956;28;20064;-65
2022/07/25 03:21:17;;;;;;;5.43;4.93;;;23.40;99.90;;;;;;5078188;28;20090;-65
2022/07/25 03:23:43;;;;;;;5.65;5.03;;;23.40;99.90;;;;;;5078808;28;20040;-66
2022/07/25 03:26:09;;;;;;;8.45;5.15;;;23.40;99.90;;;;;;5078178;28;20402;-65
2022/07/25 03:28:35;;;;;;;6.53;5.03;;;23.40;99.90;;;;;;5078011;28;20048;-65
2022/07/25 03:31:02;;;;;;;5.75;5.20;;;23.40;99.90;;;;;;5078711;28;20028;-64
2022/07/25 03:33:27;;;;;;;6.68;5.20;;;23.40;99.90;;;;;;5078583;28;20407;-65
2022/07/25 03:35:55;;;;;;;5.63;5.07;;;23.20;99.90;;;;;;5078807;28;20032;-64
2022/07/25 03:38:21;;;;;;;8.10;5.47;;;23.20;99.90;;;;;;5061048;28;20028;-66
2022/07/25 03:40:46;;;;;;;6.22;5.32;;;23.20;99.90;;;;;;5078445;28;20031;-65
2022/07/25 03:43:12;;;;;;;9.05;5.63;;;23.20;99.90;;;;;;5077673;28;20404;-65
2022/07/25 03:45:38;;;;;;;5.57;5.07;;;23.10;99.90;;;;;;5061020;28;20037;-66
2022/07/25 03:48:04;;;;;;;6.40;4.82;;;23.20;99.90;;;;;;5078336;28;20049;-61
2022/07/25 03:50:30;;;;;;;5.65;4.40;;;23.20;99.90;;;;;;5078216;28;20033;-66
2022/07/25 03:52:55;;;;;;;8.43;4.57;;;23.30;99.90;;;;;;5078147;28;20070;-63
2022/07/25 03:55:21;;;;;;;4.38;3.97;;;23.40;99.90;;;;;;5078179;28;20345;-65
2022/07/25 03:57:47;;;;;;;7.00;4.05;;;23.40;99.90;;;;;;5077098;28;20052;-64
2022/07/25 04:00:23;;;;;;;5.15;3.78;;;23.40;99.90;;;;;;5078108;28;20404;-67
2022/07/25 04:02:49;;;;;;;4.10;3.50;;;23.30;99.90;;;;;;5078203;28;20036;-65
2022/07/25 04:05:15;;;;;;;4.50;3.30;;;23.30;99.90;;;;;;5077860;28;20400;-64
2022/07/25 04:07:40;;;;;;;4.80;3.60;;;23.30;99.90;;;;;;5076991;28;20056;-62
2022/07/25 04:10:07;;;;;;;4.05;2.80;;;23.20;99.90;;;;;;5076917;28;20072;-63
2022/07/25 04:12:33;;;;;;;3.83;2.70;;;23.30;99.90;;;;;;5077599;28;20068;-62
2022/07/25 04:14:59;;;;;;;4.03;2.60;;;23.20;99.90;;;;;;5077511;28;20089;-62
2022/07/25 04:17:24;;;;;;;3.53;2.47;;;23.10;99.90;;;;;;5077509;28;20066;-60
2022/07/25 04:19:50;;;;;;;3.60;2.67;;;23.10;99.90;;;;;;5077653;28;20032;-62
2022/07/25 04:22:16;;;;;;;5.15;2.42;;;23.10;99.90;;;;;;5077604;28;20027;-63
2022/07/25 04:24:42;;;;;;;3.08;2.28;;;23.10;99.90;;;;;;5077531;28;20032;-63
2022/07/25 04:27:07;;;;;;;4.55;2.30;;;22.90;99.90;;;;;;5078119;28;20029;-62
2022/07/25 04:29:33;;;;;;;3.85;2.00;;;22.80;99.90;;;;;;5076844;28;20115;-63
2022/07/25 04:31:59;;;;;;;2.40;2.20;;;22.80;99.90;;;;;;5077420;28;20300;-67
2022/07/25 04:34:25;;;;;;;4.43;2.55;;;22.70;99.90;;;;;;5077266;28;20064;-63
2022/07/25 04:36:50;;;;;;;2.53;2.08;;;22.80;99.90;;;;;;5076680;28;20032;-66
2022/07/25 04:39:16;;;;;;;7.47;2.35;;;22.70;99.90;;;;;;5076607;28;20098;-62
2022/07/25 04:41:42;;;;;;;4.05;2.38;;;22.60;99.90;;;;;;5077626;28;20024;-59
2022/07/25 04:44:07;;;;;;;5.40;2.55;;;22.60;99.90;;;;;;5077238;28;20084;-62
2022/07/25 04:46:33;;;;;;;4.65;2.50;;;22.70;99.90;;;;;;5076447;28;20102;-60
2022/07/25 04:48:59;;;;;;;5.10;2.33;;;22.60;99.90;;;;;;5075752;28;20036;-65
2022/07/25 04:51:25;;;;;;;4.43;2.45;;;22.60;99.90;;;;;;5059741;28;20060;-62
2022/07/25 04:53:51;;;;;;;2.97;2.50;;;22.50;99.90;;;;;;5059630;28;20067;-63
2022/07/25 04:56:16;;;;;;;2.80;2.53;;;22.50;99.90;;;;;;5076987;28;20404;-62
2022/07/25 04:58:43;;;;;;;7.43;2.50;;;22.60;99.90;;;;;;5077323;28;20094;-62
2022/07/25 05:01:08;;;;;;;4.32;2.60;;;22.70;99.90;;;;;;5077545;28;20037;-61
2022/07/25 05:03:34;;;;;;;4.72;2.97;;;22.60;99.90;;;;;;5076970;28;20333;-61
2022/07/25 05:06:00;;;;;;;4.25;2.35;;;22.70;99.90;;;;;;5077258;28;20025;-61
2022/07/25 05:08:26;;;;;;;4.63;2.30;;;22.50;99.90;;;;;;5076156;28;20150;-62
2022/07/25 05:10:51;;;;;;;4.00;2.33;;;22.40;99.90;;;;;;5076990;28;20032;-60
2022/07/25 05:13:17;;;;;;;4.38;2.20;;;22.40;99.90;;;;;;5076707;28;20359;-60
2022/07/25 05:15:43;;;;;;;6.85;2.60;;;22.40;99.90;;;;;;5076844;28;20039;-60
2022/07/25 05:18:09;;;;;;;4.97;2.53;;;22.50;99.90;;;;;;5076198;28;20039;-62
2022/07/25 05:20:35;;;;;;;5.53;2.70;;;22.60;99.90;;;;;;5076884;28;20041;-62
2022/07/25 05:23:00;;;;;;;5.95;2.33;;;22.60;99.90;;;;;;5076469;28;20044;-62
2022/07/25 05:25:26;;;;;;;9.30;2.20;;;22.40;99.90;;;;;;5076861;28;20028;-58
2022/07/25 05:27:54;;;;;;;6.68;1.95;;;22.40;99.90;;;;;;5077084;28;20086;-61
2022/07/25 05:30:20;;;;;;;5.15;2.05;;;22.10;99.90;;;;;;5076039;28;20072;-64
2022/07/25 05:32:46;;;;;;;5.50;2.00;;;22.10;99.90;;;;;;5076616;28;20134;-63
2022/07/25 05:35:12;;;;;;;9.43;2.10;;;22.20;99.90;;;;;;5076664;28;20024;-64
2022/07/25 05:37:37;;;;;;;7.60;2.22;;;22.10;99.90;;;;;;5076605;28;20032;-60
2022/07/25 05:40:05;;;;;;;8.18;2.30;;;22.20;99.90;;;;;;5076708;28;20097;-59
2022/07/25 05:42:31;;;;;;;6.00;2.00;;;22.30;99.90;;;;;;5075585;28;20408;-63
2022/07/25 05:44:57;;;;;;;9.43;2.53;;;22.30;99.90;;;;;;5076634;28;20106;-60
2022/07/25 05:47:22;;;;;;;9.23;1.98;;;22.30;99.90;;;;;;5076597;28;20413;-62
2022/07/25 05:49:48;;;;;;;6.47;2.00;;;22.30;99.90;;;;;;5075902;28;20029;-61
2022/07/25 05:52:14;;;;;;;8.55;2.08;;;22.20;99.90;;;;;;5077079;28;20039;-61
2022/07/25 05:54:40;;;;;;;5.65;1.95;;;22.20;99.90;;;;;;5076528;28;20514;-62
2022/07/25 05:57:06;;;;;;;6.40;2.20;;;22.20;99.90;;;;;;5076403;28;20055;-62
2022/07/25 05:59:31;;;;;;;6.95;2.25;;;22.20;99.90;;;;;;5076430;28;20024;-62
2022/07/25 06:01:57;;;;;;;5.30;1.92;;;22.40;99.90;;;;;;5080139;28;20261;-61
2022/07/25 06:04:23;;;;;;;7.45;1.88;;;22.40;99.90;;;;;;5046261;28;20029;-60
2022/07/25 06:06:52;;;;;;;9.57;2.17;;;22.20;99.90;;;;;;5080268;28;20040;-62
2022/07/25 06:09:21;;;;;;;6.70;2.17;;;22.00;99.90;;;;;;5080283;28;20112;-60
2022/07/25 06:11:48;;;;;;;5.80;2.20;;;22.20;99.90;;;;;;5080129;28;20040;-60
2022/07/25 06:14:14;;;;;;;5.13;1.95;;;22.20;99.90;;;;;;5079961;28;20032;-61
2022/07/25 06:16:41;;;;;;;4.95;2.03;;;22.10;99.90;;;;;;5080331;28;20032;-61
2022/07/25 06:19:06;;;;;;;9.18;2.42;;;22.10;99.90;;;;;;5079941;28;20064;-61
2022/07/25 06:21:32;;;;;;;9.30;2.30;;;22.20;99.90;;;;;;5080014;28;20060;-61
2022/07/25 06:23:58;;;;;;;8.80;2.30;;;22.20;99.90;;;;;;5079863;28;20047;-61
2022/07/25 06:26:24;;;;;;;5.53;2.70;;;22.30;99.90;;;;;;5080118;28;20384;-60
2022/07/25 06:28:51;;;;;;;7.10;2.55;;;22.30;99.90;;;;;;5078955;28;20047;-61
2022/07/25 06:31:16;;;;;;;8.05;2.88;;;22.10;99.90;;;;;;5079020;28;20400;-61
2022/07/25 06:33:42;;;;;;;7.93;2.20;;;22.20;99.90;;;;;;5079869;28;20117;-61
2022/07/25 06:36:09;;;;;;;9.07;3.25;;;22.40;99.90;;;;;;5079688;28;20025;-61
2022/07/25 06:38:35;;;;;;;7.90;3.17;;;22.50;99.90;;;;;;5079634;28;20028;-62
2022/07/25 06:41:01;;;;;;;6.85;2.95;;;22.70;99.90;;;;;;5078826;28;20040;-62
2022/07/25 06:43:26;;;;;;;6.30;2.85;;;22.60;99.90;;;;;;5079845;28;20032;-63
2022/07/25 06:45:53;;;;;;;6.15;2.95;;;22.30;99.90;;;;;;5079459;28;20029;-59
2022/07/25 06:48:19;;;;;;;7.80;3.03;;;22.20;99.90;;;;;;5079826;28;20304;-64
2022/07/25 06:50:45;;;;;;;6.28;3.28;;;22.20;99.90;;;;;;5079484;28;20041;-65
2022/07/25 06:53:11;;;;;;;8.88;3.28;;;22.20;99.90;;;;;;5079767;28;20028;-63
2022/07/25 06:55:37;;;;;;;7.15;3.05;;;22.30;99.90;;;;;;5078876;28;20070;-65
2022/07/25 06:58:03;;;;;;;5.47;2.70;;;22.60;99.90;;;;;;5078429;28;20056;-61
2022/07/25 07:00:29;;;;;;;9.15;2.83;;;22.60;99.90;;;;;;5079389;28;20032;-62
2022/07/25 07:02:59;;;;;;;8.55;3.50;;;22.80;99.90;;;;;;5079240;28;20091;-61
2022/07/25 07:05:32;;;;;;;6.47;2.90;;;22.80;99.90;;;;;;5079258;28;20094;-60
2022/07/25 07:07:58;;;;;;;5.82;3.20;;;22.80;99.90;;;;;;5079172;28;20129;-63
2022/07/25 07:10:24;;;;;;;6.60;2.90;;;22.70;99.90;;;;;;5079128;28;20489;-63
2022/07/25 07:13:00;;;;;;;8.73;3.80;;;22.60;99.90;;;;;;5077878;28;20104;-60
2022/07/25 07:15:26;;;;;;;9.07;3.60;;;22.50;99.90;;;;;;5078917;28;20044;-58
2022/07/25 07:17:53;;;;;;;7.47;3.85;;;22.70;99.90;;;;;;5079385;28;20033;-59
2022/07/25 07:20:18;;;;;;;6.30;3.80;;;22.80;99.90;;;;;;5078954;28;20123;-63
2022/07/25 07:22:48;;;;;;;8.93;3.95;;;22.60;99.90;;;;;;5078818;28;20119;-60
2022/07/25 07:25:16;;;;;;;12.15;4.78;;;22.70;99.90;;;;;;5078837;28;20021;-64
2022/07/25 07:27:43;;;;;;;9.73;4.05;;;22.80;99.90;;;;;;5078065;28;20041;-60
2022/07/25 07:30:10;;;;;;;7.72;4.05;;;22.90;99.90;;;;;;5077923;28;20403;-62
2022/07/25 07:32:36;;;;;;;7.38;4.28;;;23.00;99.90;;;;;;5077971;28;20040;-62
2022/07/25 07:35:02;;;;;;;12.52;4.32;;;23.00;99.90;;;;;;5078614;28;20036;-60
2022/07/25 07:37:28;;;;;;;9.38;4.15;;;23.20;99.90;;;;;;5077784;28;20039;-60
2022/07/25 07:39:54;;;;;;;10.18;4.18;;;23.30;99.90;;;;;;5077800;28;20455;-59
2022/07/25 07:42:20;;;;;;;6.85;3.67;;;23.30;99.90;;;;;;5077782;28;20142;-60
2022/07/25 07:44:45;;;;;;;8.85;3.40;;;23.30;99.90;;;;;;5078345;28;20021;-61
2022/07/25 07:47:11;;;;;;;10.68;3.78;;;23.10;99.90;;;;;;5078430;28;20048;-61
2022/07/25 07:49:37;;;;;;;4.85;3.17;;;22.70;99.90;;;;;;5078326;28;20101;-60
2022/07/25 07:52:03;;;;;;;8.30;3.60;;;22.80;99.90;;;;;;5078255;28;20407;-61
2022/07/25 07:57:13;;;;;;;8.45;2.97;;;22.90;99.90;;;;;;5078250;28;20057;-59
2022/07/25 07:59:39;;;;;;;10.80;3.47;;;22.90;99.90;;;;;;5078083;28;20372;-63
2022/07/25 08:02:05;;;;;;;5.35;3.47;;;22.90;99.90;;;;;;5060800;28;20043;-59
2022/07/25 08:04:31;;;;;;;7.22;3.53;;;22.90;99.90;;;;;;5077942;28;20308;-63
2022/07/25 08:06:57;;;;;;;7.13;3.20;;;22.80;99.90;;;;;;5077968;28;20031;-60
2022/07/25 08:09:24;;;;;;;8.52;3.20;;;22.80;99.90;;;;;;5077028;28;20072;-60
2022/07/25 08:11:51;;;;;;;7.95;2.90;;;23.00;99.90;;;;;;5078373;28;20130;-59
2022/07/25 08:14:17;;;;;;;6.38;3.08;;;23.30;99.90;;;;;;5077015;28;20033;-59
2022/07/25 08:16:43;;;;;;;7.78;2.60;;;23.30;99.90;;;;;;5077810;28;20300;-58
2022/07/25 08:19:09;;;;;;;6.93;2.60;;;23.10;99.90;;;;;;5077982;28;20034;-61
2022/07/25 08:21:35;;;;;;;7.30;2.97;;;23.20;99.90;;;;;;5077705;28;20025;-62
2022/07/25 08:24:00;;;;;;;8.13;2.60;;;23.50;99.90;;;;;;5076610;28;20448;-62
2022/07/25 08:26:26;;;;;;;5.68;2.75;;;24.00;99.90;;;;;;5076788;28;20044;-61
2022/07/25 08:28:53;;;;;;;6.47;3.05;;;24.30;99.90;;;;;;5077548;28;20038;-63
2022/07/25 08:31:19;;;;;;;7.13;3.40;;;24.00;99.90;;;;;;5077556;28;20033;-64
2022/07/25 08:33:44;;;;;;;8.48;3.60;;;23.50;99.90;;;;;;5076774;28;20458;-67
2022/07/25 08:36:10;;;;;;;6.18;3.47;;;22.80;99.90;;;;;;5077423;28;20391;-65
2022/07/25 08:38:36;;;;;;;5.57;3.45;;;22.50;99.90;;;;;;5060380;28;20062;-62
2022/07/25 08:41:02;;;;;;;5.70;3.20;;;22.50;99.90;;;;;;5076728;28;20270;-63
2022/07/25 08:43:32;;;;;;;6.03;2.97;;;22.50;99.90;;;;;;5077268;28;20040;-61
2022/07/25 08:46:00;;;;;;;6.68;3.20;;;22.60;99.90;;;;;;5076579;28;20037;-65
2022/07/25 08:48:26;;;;;;;6.32;3.20;;;22.80;99.90;;;;;;5077191;28;20040;-60
2022/07/25 08:50:53;;;;;;;3.97;2.70;;;23.00;99.90;;;;;;5076514;28;20039;-61
2022/07/25 08:53:20;;;;;;;6.60;2.70;;;23.20;99.90;;;;;;5077043;28;20123;-61
2022/07/25 08:55:46;;;;;;;3.63;2.00;;;23.50;99.90;;;;;;5077121;28;20079;-64
2022/07/25 08:58:15;;;;;;;5.13;2.22;;;23.70;99.90;;;;;;5076201;28;20044;-63
2022/07/25 09:00:41;;;;;;;4.22;2.30;;;23.80;99.90;;;;;;5077111;28;20115;-64
2022/07/25 09:03:07;;;;;;;3.55;1.80;;;23.90;99.90;;;;;;5077004;28;20024;-59
2022/07/25 09:05:34;;;;;;;6.35;1.70;;;24.10;99.90;;;;;;5077059;28;20300;-60
2022/07/25 09:08:15;;;;;;;6.07;2.08;;;24.20;99.90;;;;;;5077021;28;20032;-65
2022/07/25 09:10:49;;;;;;;3.72;1.80;;;24.20;99.90;;;;;;5077002;28;20037;-62
2022/07/25 09:13:16;;;;;;;6.22;1.85;;;24.30;99.90;;;;;;5076910;28;20032;-63
2022/07/25 09:15:59;;;;;;;5.60;1.70;;;24.30;99.90;;;;;;5076877;28;20393;-62
2022/07/25 09:18:26;;;;;;;;;;;24.50;99.90;;;;;;5077299;28;20032;-60
2022/07/25 09:21:00;;;;;;;3.88;1.77;;;24.60;99.90;;;;;;5076868;28;20234;-66
2022/07/25 09:23:30;;;;;;;5.22;1.60;;;24.80;99.90;;;;;;5077312;28;20303;-63
2022/07/25 09:26:10;;;;;;;5.05;1.70;;;25.00;99.90;;;;;;5077413;28;20349;-66
2022/07/25 09:28:47;;;;;;;5.45;1.73;;;25.00;99.90;;;;;;5076900;28;20293;-63
2022/07/25 09:31:16;;;;;;;3.28;1.65;;;24.40;99.90;;;;;;5076075;28;20040;-61
2022/07/25 09:33:58;;;;;;;4.57;1.60;;;24.30;99.90;;;;;;5076642;28;20021;-64
2022/07/25 09:36:24;;;;;;;3.25;1.42;;;24.60;99.90;;;;;;5079127;28;20396;-65
2022/07/25 09:39:03;;;;;;;3.45;1.27;;;25.10;99.90;;;;;;5063266;28;20059;-67
2022/07/25 09:41:36;;;;;;;5.35;1.38;;;25.40;99.90;;;;;;5080883;28;20063;-66
2022/07/25 09:44:03;;;;;;;4.82;1.77;;;25.40;99.90;;;;;;5081087;28;20320;-61
2022/07/25 09:46:30;;;;;;;2.67;1.70;;;25.60;99.90;;;;;;5080678;28;20032;-63
2022/07/25 09:48:57;;;;;;;2.85;1.40;;;26.10;99.90;;;;;;5080579;28;20044;-59
2022/07/25 09:51:25;;;;;;;3.55;1.20;;;26.40;99.90;;;;;;5079855;28;20040;-60
2022/07/25 09:53:52;;;;;;;3.28;1.50;;;26.20;99.90;;;;;;5079799;28;20043;-59
2022/07/25 09:56:18;;;;;;;4.72;1.38;;;26.30;99.90;;;;;;5080393;28;20064;-61
2022/07/25 09:58:44;;;;;;;5.55;1.55;;;26.30;99.90;;;;;;5080459;28;20052;-64
2022/07/25 10:01:15;;;;;;;4.00;1.50;;;26.30;99.90;;;;;;5080320;28;20028;-61
2022/07/25 10:03:50;;;;;;;4.50;1.42;;;26.10;99.90;;;;;;5080860;28;20083;-65
2022/07/25 10:06:34;;;;;;;2.63;1.20;;;26.00;99.90;;;;;;5080333;28;20040;-63
2022/07/25 10:09:00;;;;;;;4.78;1.65;;;25.80;99.90;;;;;;5080574;28;20024;-62
2022/07/25 10:11:26;;;;;;;3.30;1.30;;;25.40;99.90;;;;;;5080151;28;20078;-61
2022/07/25 10:13:54;;;;;;;3.35;1.30;;;25.30;99.90;;;;;;5080042;28;20036;-64
2022/07/25 10:16:24;;;;;;;3.80;1.48;;;25.80;99.90;;;;;;5079943;28;20081;-61
2022/07/25 10:18:56;;;;;;;4.60;1.70;;;26.20;99.90;;;;;;5079923;28;20111;-60
2022/07/25 10:21:24;;;;;;;4.30;1.77;;;25.80;99.90;;;;;;5080076;28;20115;-65
2022/07/25 10:24:08;;;;;;;4.63;1.67;;;25.70;99.90;;;;;;5079934;28;20032;-62
2022/07/25 10:26:39;;;;;;;5.43;1.90;;;25.50;99.90;;;;;;5079526;28;20347;-64
2022/07/25 10:29:10;;;;;;;4.53;1.80;;;25.50;99.90;;;;;;5080114;28;20052;-62
2022/07/25 10:31:40;;;;;;;4.35;1.63;;;25.40;99.90;;;;;;5079928;28;20106;-60
2022/07/25 10:34:09;;;;;;;6.47;2.00;;;25.00;99.90;;;;;;5080046;28;20040;-60
2022/07/25 10:36:50;;;;;;;2.67;1.40;;;25.10;99.90;;;;;;5079230;28;20036;-62
2022/07/25 10:39:17;;;;;;;4.15;1.48;;;25.10;99.90;;;;;;5079650;28;20089;-66
2022/07/25 10:41:53;;;;;;;5.57;1.50;;;25.10;99.90;;;;;;5079879;28;20403;-63
2022/07/25 10:44:19;;;;;;;3.58;1.50;;;25.10;99.90;;;;;;5079752;28;20043;-59
2022/07/25 10:46:45;;;;;;;7.05;1.70;;;25.20;99.90;;;;;;5078585;28;20033;-63
2022/07/25 10:49:25;;;;;;;5.22;1.67;;;25.20;99.90;;;;;;5079097;28;20060;-61
2022/07/25 10:51:58;;;;;;;4.03;1.50;;;25.20;99.90;;;;;;5080127;28;20039;-65
2022/07/25 10:54:24;;;;;;;5.50;1.70;;;24.90;99.90;;;;;;5078625;28;20293;-60
2022/07/25 10:56:58;;;;;;;5.47;2.00;;;24.30;99.90;;;;;;5079252;28;20036;-61
2022/07/25 10:59:39;;;;;;;4.90;1.60;;;24.10;99.90;;;;;;5079197;28;20037;-63
2022/07/25 11:02:08;;;;;;;6.18;1.60;;;24.10;99.90;;;;;;5079788;28;20444;-59
2022/07/25 11:04:35;;;;;;;4.05;2.08;;;24.30;99.90;;;;;;5078459;28;20029;-64
2022/07/25 11:07:12;;;;;;;4.43;1.77;;;24.50;99.90;;;;;;5078387;28;20054;-62
2022/07/25 11:09:40;;;;;;;4.03;1.83;;;24.30;99.90;;;;;;5079051;28;20107;-63
2022/07/25 11:12:07;;;;;;;5.63;1.67;;;24.10;99.90;;;;;;5079811;28;20380;-60
2022/07/25 11:14:36;;;;;;;7.05;1.92;;;24.10;99.90;;;;;;5078920;28;20020;-63
2022/07/25 11:17:18;;;;;;;4.28;1.75;;;23.80;99.90;;;;;;5079001;28;20300;-63
2022/07/25 11:20:15;;;;;;;6.32;1.90;;;23.90;99.90;;;;;;5078954;28;20036;-60
2022/07/25 11:22:41;;;;;;;7.72;2.30;;;24.20;99.90;;;;;;5078842;28;20040;-60
2022/07/25 11:25:15;;;;;;;3.63;1.70;;;24.20;99.90;;;;;;5078814;28;20025;-61
2022/07/25 11:27:41;;;;;;;3.85;1.77;;;24.40;99.90;;;;;;5078168;28;20366;-60
2022/07/25 11:30:18;;;;;;;5.68;1.70;;;24.60;99.90;;;;;;5078772;28;20091;-60
2022/07/25 11:32:45;;;;;;;4.93;1.50;;;24.60;99.90;;;;;;5078604;28;20033;-62
2022/07/25 11:35:13;;;;;;;5.45;1.40;;;24.40;99.90;;;;;;5078614;28;20038;-63
2022/07/25 11:37:40;;;;;;;5.32;1.50;;;24.20;99.90;;;;;;5078479;28;20452;-63
2022/07/25 11:40:07;;;;;;;3.97;1.48;;;24.20;99.90;;;;;;5078558;28;20025;-64
2022/07/25 11:42:42;;;;;;;4.63;1.63;;;24.00;99.90;;;;;;5077838;28;20033;-68
2022/07/25 11:45:29;;;;;;;5.60;1.75;;;23.60;99.90;;;;;;5078704;28;20029;-60
2022/07/25 11:48:06;;;;;;;6.82;1.77;;;23.60;99.90;;;;;;5079007;28;20028;-63
2022/07/25 11:50:35;;;;;;;3.47;1.38;;;23.60;99.90;;;;;;5077548;28;20021;-67
2022/07/25 11:53:04;;;;;;;2.95;1.20;;;24.00;99.90;;;;;;5078115;28;20032;-67
2022/07/25 11:55:32;;;;;;;6.10;1.73;;;25.00;99.90;;;;;;5078148;28;20027;-61
2022/07/25 11:58:00;;;;;;;5.60;1.45;;;25.80;99.90;;;;;;5077704;28;20298;-64
2022/07/25 12:00:27;;;;;;;3.90;1.40;;;26.00;99.90;;;;;;5078168;28;20054;-63
2022/07/25 12:02:53;;;;;;;5.03;1.58;;;26.50;99.90;;;;;;5078020;28;20056;-63
2022/07/25 12:05:21;;;;;;;2.90;1.40;;;26.00;99.90;;;;;;5077905;28;20044;-64
2022/07/25 12:07:50;;;;;;;3.30;1.30;;;26.30;99.90;;;;;;5078224;28;20028;-67
2022/07/25 12:10:17;;;;;;;4.82;1.27;;;26.70;99.90;;;;;;5077280;28;20131;-61
2022/07/25 12:12:55;;;;;;;5.20;1.20;;;27.10;99.90;;;;;;5077773;28;20391;-64
2022/07/25 12:15:23;;;;;;;5.28;1.70;;;26.80;99.90;;;;;;5077015;28;20025;-59
2022/07/25 12:17:50;;;;;;;5.65;1.80;;;26.70;99.90;;;;;;5077827;28;20093;-68
2022/07/25 12:20:20;;;;;;;3.22;1.40;;;25.80;99.90;;;;;;5060351;28;20063;-63
2022/07/25 12:22:47;;;;;;;6.18;1.85;;;25.50;99.90;;;;;;5077606;28;20039;-68
2022/07/25 12:25:13;;;;;;;4.75;1.60;;;27.10;99.90;;;;;;5076910;28;20029;-64
2022/07/25 12:27:40;;;;;;;5.85;1.85;;;28.20;99.90;;;;;;5078159;28;20300;-61
2022/07/25 12:30:07;;;;;;;5.13;1.52;;;29.10;99.90;;;;;;5076965;28;20102;-63
2022/07/25 12:32:33;;;;;;;4.78;1.42;;;28.70;99.90;;;;;;5076787;28;20025;-59
2022/07/25 12:34:59;;;;;;;6.88;1.52;;;27.60;99.90;;;;;;5077411;28;20044;-62
2022/07/25 12:37:25;;;;;;;5.57;1.40;;;27.90;99.90;;;;;;5076655;28;20032;-64
2022/07/25 12:39:52;;;;;;;6.10;1.50;;;27.40;99.90;;;;;;5076627;28;20063;-65
2022/07/25 12:42:18;;;;;;;5.85;1.50;;;27.60;99.90;;;;;;5077647;28;20040;-61
2022/07/25 12:44:44;;;;;;;5.05;1.30;;;28.50;99.90;;;;;;5076460;28;20047;-62
2022/07/25 12:47:10;;;;;;;4.28;1.30;;;29.50;99.90;;;;;;5077351;28;20029;-61
2022/07/25 12:49:36;;;;;;;3.90;1.50;;;29.90;99.90;;;;;;5076437;28;20190;-60
2022/07/25 12:52:02;;;;;;;6.05;1.20;;;29.70;99.90;;;;;;5077851;28;20048;-61